General Aviation Weather

Text Reports

Enter one or more of the following location identifiers separated by a space:

Zip Code, Four-Character ICAO or Three-Character IATA airport codes.

METAR - Aviation Routine Weather Report
ETHC - Celle,
Updated at 3:20 AM GMT on July 02, 2015 (5:20 AM CEST):
METAR ETHC 020320Z AUTO 09008KT 9999 // ////// 18/10 Q1022 ///
TAF - Terminal Area Forecast
ETHC - Celle,
Updated at 3:20 AM GMT on July 02, 2015 (5:20 AM CEST):
TAF ETHC 011312Z 0114/0123 11010KT 9999 NSW FEW350=
TAF AMD ETHE 011300Z 0114/0123 12008KT 9999 NSW FEW270 CANCEL
     1330=
Decoded:
ID: ETHC   Celle (GER-ARMY, DL
REPORT TIME: 29 13:16
VALID TIME: 29 June AT 14:00Z to 29 June AT 23:00Z.
INITIAL WX
   WINDS: 300 AT 7
   WEATHER: NSW
   CLOUDS: 50 SCT
   CLOUDS: 280 SCT
   COMMENTS: = 

PIREP - Pilot Weather Report
ETHC - Celle,
Updated at 3:20 AM GMT on July 02, 2015 (5:20 AM CEST):
No PIREP is currently available for this location.
AIRMET - Airmens Meteorological Information
ETHC - Celle,
Updated at 3:20 AM GMT on July 02, 2015 (5:20 AM CEST):
No AIRMET is currently available for this location.
SIGMET - Significant Meteorological Information
ETHC - Celle,
Updated at 3:20 AM GMT on July 02, 2015 (5:20 AM CEST):
No SIGMET is currently available for this location.
NOTAM - Notice to Airmen
ETHC - Celle,
Updated at 3:20 AM GMT on July 02, 2015 (5:20 AM CEST):
No NOTAM is currently available for this location.
Forecast Area
ETHC - Celle,
Updated at 3:20 AM GMT on July 02, 2015 (5:20 AM CEST):
No NOTAM is currently available for this location.
Aviation Weather Maps